createdAt,value
2022-12-23T00:01:27.929Z,9.40
2022-12-23T00:04:01.669Z,9.40
2022-12-23T00:06:31.554Z,9.40
2022-12-23T00:09:02.281Z,9.40
2022-12-23T00:11:32.058Z,9.40
2022-12-23T00:14:20.512Z,9.40
2022-12-23T00:16:53.944Z,9.40
2022-12-23T00:19:23.774Z,9.40
2022-12-23T00:21:53.567Z,9.40
2022-12-23T00:24:23.400Z,9.40
2022-12-23T00:26:53.203Z,9.40
2022-12-23T00:29:22.998Z,9.40
2022-12-23T00:31:55.467Z,9.40
2022-12-23T00:34:25.401Z,9.40
2022-12-23T00:36:55.292Z,9.40
2022-12-23T00:39:37.571Z,9.50
2022-12-23T00:42:19.855Z,9.50
2022-12-23T00:44:49.647Z,9.40
2022-12-23T00:47:34.509Z,9.50
2022-12-23T00:50:04.108Z,9.50
2022-12-23T00:52:33.819Z,9.50
2022-12-23T00:55:03.575Z,9.50
2022-12-23T00:57:33.343Z,9.60
2022-12-23T01:00:03.142Z,9.60
2022-12-23T01:02:48.137Z,9.60
2022-12-23T01:05:36.033Z,9.60
2022-12-23T01:08:06.357Z,9.60
2022-12-23T01:10:37.674Z,9.70
2022-12-23T01:13:07.940Z,9.70
2022-12-23T01:15:37.755Z,9.70
2022-12-23T01:18:10.199Z,9.70
2022-12-23T01:20:40.668Z,9.70
2022-12-23T01:23:10.526Z,9.80
2022-12-23T01:25:40.405Z,9.80
2022-12-23T01:28:10.250Z,9.80
2022-12-23T01:30:40.684Z,9.80
2022-12-23T01:33:13.017Z,9.80
2022-12-23T01:35:42.807Z,9.90
2022-12-23T01:38:12.833Z,9.90
2022-12-23T01:40:44.721Z,9.90
2022-12-23T01:43:15.673Z,9.90
2022-12-23T01:45:45.783Z,9.90
2022-12-23T01:48:22.317Z,9.90
2022-12-23T01:50:58.194Z,9.90
2022-12-23T01:53:31.312Z,9.90
2022-12-23T01:56:05.688Z,9.90
2022-12-23T01:58:40.571Z,10.00
2022-12-23T02:01:24.426Z,10.00
2022-12-23T02:04:00.753Z,10.00
2022-12-23T02:06:46.099Z,10.10
2022-12-23T02:09:20.128Z,10.10
2022-12-23T02:12:21.620Z,10.10
2022-12-23T02:15:17.059Z,10.20
2022-12-23T02:18:00.324Z,10.20
2022-12-23T02:21:05.951Z,10.30
2022-12-23T02:24:08.432Z,10.30
2022-12-23T02:27:20.027Z,10.40
2022-12-23T02:30:28.810Z,10.60
2022-12-23T02:33:37.088Z,10.60
2022-12-23T02:36:18.348Z,10.70
2022-12-23T02:38:55.955Z,10.80
2022-12-23T02:41:32.835Z,11.00
2022-12-23T02:44:10.232Z,11.00
2022-12-23T02:46:48.360Z,10.90
2022-12-23T02:49:24.584Z,11.00
2022-12-23T02:51:59.169Z,10.90
2022-12-23T02:54:31.216Z,11.00
2022-12-23T02:57:03.637Z,11.10
2022-12-23T02:59:43.083Z,11.40
2022-12-23T03:02:13.079Z,11.50
2022-12-23T03:04:43.111Z,11.80
2022-12-23T03:07:20.703Z,11.80
2022-12-23T03:10:00.676Z,11.90
2022-12-23T03:12:43.836Z,11.80
2022-12-23T03:15:24.032Z,11.80
2022-12-23T03:18:03.411Z,11.90
2022-12-23T03:20:41.907Z,11.90
2022-12-23T03:23:23.219Z,12.00
2022-12-23T03:26:01.303Z,11.80
2022-12-23T03:28:38.597Z,11.80
2022-12-23T03:31:13.607Z,11.80
2022-12-23T03:33:47.521Z,11.80
2022-12-23T03:36:23.200Z,11.80
2022-12-23T03:38:58.647Z,11.80
2022-12-23T03:41:33.711Z,11.70
2022-12-23T03:44:08.225Z,11.70
2022-12-23T03:46:40.641Z,11.70
2022-12-23T03:49:14.593Z,11.80
2022-12-23T03:51:51.447Z,11.70
2022-12-23T03:54:29.003Z,11.70
2022-12-23T03:57:03.956Z,11.70
2022-12-23T03:59:36.364Z,11.70
2022-12-23T04:02:11.584Z,11.60
2022-12-23T04:04:54.186Z,11.60
2022-12-23T04:07:27.966Z,11.70
2022-12-23T04:10:01.136Z,11.70
2022-12-23T04:12:32.299Z,11.60
2022-12-23T04:15:04.933Z,11.60
2022-12-23T04:17:39.508Z,11.60
2022-12-23T04:20:10.730Z,11.50
2022-12-23T04:22:40.502Z,11.50
2022-12-23T04:25:13.039Z,11.60
2022-12-23T04:27:46.477Z,11.60
2022-12-23T04:30:16.790Z,11.60
2022-12-23T04:32:46.863Z,11.70
2022-12-23T04:35:16.648Z,11.60
2022-12-23T04:37:46.430Z,11.60
2022-12-23T04:40:19.380Z,11.60
2022-12-23T04:42:49.203Z,11.50
2022-12-23T04:45:19.231Z,11.50
2022-12-23T04:47:49.105Z,11.40
2022-12-23T04:50:19.587Z,11.50
2022-12-23T04:52:49.417Z,11.40
2022-12-23T04:55:21.772Z,11.40
2022-12-23T04:57:51.547Z,11.40
2022-12-23T05:00:22.173Z,11.30
2022-12-23T05:02:52.108Z,11.50
2022-12-23T05:05:21.970Z,11.50
2022-12-23T05:07:53.171Z,11.50
2022-12-23T05:10:25.566Z,11.50
2022-12-23T05:12:55.325Z,11.40
2022-12-23T05:15:25.188Z,11.40
2022-12-23T05:17:54.964Z,11.40
2022-12-23T05:20:24.784Z,11.40
2022-12-23T05:22:54.556Z,11.40
2022-12-23T05:25:26.907Z,11.30
2022-12-23T05:27:56.675Z,11.30
2022-12-23T05:30:28.740Z,11.30
2022-12-23T05:32:59.565Z,11.30
2022-12-23T05:35:30.701Z,11.30
2022-12-23T05:38:02.606Z,11.30
2022-12-23T05:40:35.617Z,11.30
2022-12-23T05:43:05.634Z,11.30
2022-12-23T05:45:38.012Z,11.30
2022-12-23T05:48:08.142Z,11.30
2022-12-23T05:50:38.409Z,11.30
2022-12-23T05:53:08.941Z,11.30
2022-12-23T05:55:41.352Z,11.30
2022-12-23T05:58:11.153Z,11.30
2022-12-23T06:00:41.167Z,11.30
2022-12-23T06:03:11.121Z,11.30
2022-12-23T06:05:43.635Z,11.20
2022-12-23T06:08:13.444Z,11.20
2022-12-23T06:10:45.811Z,11.30
2022-12-23T06:13:15.709Z,11.30
2022-12-23T06:15:45.437Z,11.30
2022-12-23T06:18:15.200Z,11.30
2022-12-23T06:20:47.792Z,11.30
2022-12-23T06:23:17.724Z,11.30
2022-12-23T06:25:50.236Z,11.30
2022-12-23T06:28:20.069Z,11.30
2022-12-23T06:30:55.813Z,11.30
2022-12-23T06:33:26.628Z,11.30
2022-12-23T06:35:56.415Z,11.30
2022-12-23T06:38:26.166Z,11.30
2022-12-23T06:40:58.748Z,11.30
2022-12-23T06:43:29.185Z,11.30
2022-12-23T06:45:59.022Z,11.30
2022-12-23T06:48:28.891Z,11.30
2022-12-23T06:50:58.646Z,11.20
2022-12-23T06:53:28.435Z,11.20
2022-12-23T06:56:06.239Z,11.20
2022-12-23T06:58:35.981Z,11.20
2022-12-23T07:01:05.852Z,11.30
2022-12-23T07:03:35.714Z,11.20
2022-12-23T07:06:05.572Z,11.20
2022-12-23T07:08:35.338Z,11.20
2022-12-23T07:11:08.629Z,11.20
2022-12-23T07:13:38.525Z,11.20
2022-12-23T07:16:09.817Z,11.10
2022-12-23T07:18:39.780Z,11.10
2022-12-23T07:21:19.807Z,11.20
2022-12-23T07:23:54.553Z,11.10
2022-12-23T07:26:26.893Z,11.10
2022-12-23T07:28:56.655Z,11.10
2022-12-23T07:31:26.473Z,11.10
2022-12-23T07:33:56.288Z,11.10
2022-12-23T07:36:26.087Z,11.10
2022-12-23T07:38:56.328Z,11.10
2022-12-23T07:41:28.834Z,11.10
2022-12-23T07:43:58.616Z,11.10
2022-12-23T07:46:28.487Z,11.10
2022-12-23T07:48:58.534Z,11.10
2022-12-23T07:51:28.487Z,11.00
2022-12-23T07:53:58.422Z,11.00
2022-12-23T07:56:30.912Z,11.00
2022-12-23T07:59:00.624Z,11.00
2022-12-23T08:01:30.478Z,11.00
2022-12-23T08:04:00.340Z,11.00
2022-12-23T08:06:30.084Z,11.00
2022-12-23T08:09:00.125Z,11.00
2022-12-23T08:11:32.519Z,11.00
2022-12-23T08:14:02.267Z,11.00
2022-12-23T08:16:35.375Z,11.00
2022-12-23T08:19:14.214Z,11.10
2022-12-23T08:21:44.050Z,11.00
2022-12-23T08:24:15.314Z,11.00
2022-12-23T08:26:47.655Z,11.00
2022-12-23T08:29:17.435Z,11.10
2022-12-23T08:31:47.219Z,11.20
2022-12-23T08:34:17.039Z,11.20
2022-12-23T08:36:46.812Z,11.20
2022-12-23T08:39:17.023Z,11.20
2022-12-23T08:41:51.066Z,11.20
2022-12-23T08:44:20.901Z,11.30
2022-12-23T08:46:51.065Z,11.30
2022-12-23T08:49:20.939Z,11.30
2022-12-23T08:51:50.874Z,11.40
2022-12-23T08:54:20.658Z,11.50
2022-12-23T08:56:53.004Z,11.60
2022-12-23T08:59:22.807Z,11.70
2022-12-23T09:01:52.702Z,11.80
2022-12-23T09:04:22.711Z,11.80
2022-12-23T09:06:52.685Z,11.90
2022-12-23T09:09:22.548Z,11.90
2022-12-23T09:11:54.958Z,12.00
2022-12-23T09:14:24.709Z,12.00
2022-12-23T09:16:54.869Z,12.00
2022-12-23T09:19:24.583Z,12.00
2022-12-23T09:21:54.394Z,12.00
2022-12-23T09:24:24.317Z,11.90
2022-12-23T09:26:56.706Z,11.90
2022-12-23T09:29:26.581Z,12.00
2022-12-23T09:31:56.565Z,12.00
2022-12-23T09:34:26.686Z,11.90
2022-12-23T09:36:56.500Z,11.90
2022-12-23T09:39:26.725Z,12.00
2022-12-23T09:42:08.522Z,12.00
2022-12-23T09:44:48.298Z,12.00
2022-12-23T09:47:22.141Z,12.00
2022-12-23T09:49:54.611Z,12.00
2022-12-23T09:52:31.081Z,12.10
2022-12-23T09:55:00.863Z,12.10
2022-12-23T09:57:38.596Z,12.10
2022-12-23T10:00:15.764Z,12.20
2022-12-23T10:03:02.587Z,12.20
2022-12-23T10:05:42.196Z,12.20
2022-12-23T10:08:17.510Z,12.10
2022-12-23T10:10:50.939Z,12.10
2022-12-23T10:13:29.863Z,12.10
2022-12-23T10:16:04.024Z,12.10
2022-12-23T10:18:54.138Z,12.10
2022-12-23T10:21:32.629Z,12.10
2022-12-23T10:24:06.265Z,12.00
2022-12-23T10:26:44.336Z,12.00
2022-12-23T10:29:20.192Z,12.10
2022-12-23T10:32:02.299Z,12.10
2022-12-23T10:34:42.666Z,12.10
2022-12-23T10:37:23.575Z,12.10
2022-12-23T10:40:04.244Z,12.10
2022-12-23T10:42:40.346Z,12.10
2022-12-23T10:45:29.992Z,12.10
2022-12-23T10:48:13.956Z,12.10
2022-12-23T10:50:57.299Z,12.10
2022-12-23T10:53:40.107Z,12.20
2022-12-23T10:56:11.632Z,12.20
2022-12-23T10:58:44.887Z,12.20
2022-12-23T11:01:26.611Z,12.20
2022-12-23T11:04:04.392Z,12.30
2022-12-23T11:06:37.796Z,12.30
2022-12-23T11:09:08.928Z,12.30
2022-12-23T11:11:56.827Z,12.30
2022-12-23T11:14:35.409Z,12.40
2022-12-23T11:17:21.268Z,12.30
2022-12-23T11:19:51.630Z,12.30
2022-12-23T11:22:27.744Z,12.30
2022-12-23T11:24:57.563Z,12.20
2022-12-23T11:27:29.739Z,12.20
2022-12-23T11:29:59.553Z,12.20
2022-12-23T11:32:32.307Z,12.10
2022-12-23T11:35:02.217Z,12.10
2022-12-23T11:37:39.078Z,12.00
2022-12-23T11:40:26.221Z,12.10
2022-12-23T11:43:00.476Z,12.00
2022-12-23T11:45:33.148Z,12.00
2022-12-23T11:48:06.167Z,12.00
2022-12-23T11:50:38.889Z,12.00
2022-12-23T11:53:17.208Z,12.00
2022-12-23T11:55:58.758Z,12.00
2022-12-23T11:58:30.517Z,12.00
2022-12-23T12:01:02.049Z,12.00
2022-12-23T12:03:46.199Z,12.00
2022-12-23T12:06:19.465Z,11.90
2022-12-23T12:08:53.767Z,11.90
2022-12-23T12:11:28.404Z,12.00
2022-12-23T12:14:02.285Z,11.90
2022-12-23T12:16:50.153Z,11.90
2022-12-23T12:19:26.849Z,11.90
2022-12-23T12:22:02.160Z,11.90
2022-12-23T12:24:35.675Z,12.00
2022-12-23T12:27:10.917Z,11.90
2022-12-23T12:29:44.992Z,11.90
2022-12-23T12:32:20.750Z,12.00
2022-12-23T12:34:58.719Z,12.00
2022-12-23T12:37:39.055Z,12.00
2022-12-23T12:40:23.551Z,12.00
2022-12-23T12:42:59.993Z,12.00
2022-12-23T12:45:35.835Z,12.00
2022-12-23T12:48:22.783Z,12.00
2022-12-23T12:51:02.226Z,12.00
2022-12-23T12:53:34.981Z,12.00
2022-12-23T12:56:13.287Z,12.00
2022-12-23T12:58:44.367Z,12.00
2022-12-23T13:01:28.397Z,12.00
2022-12-23T13:04:29.211Z,11.90
2022-12-23T13:07:08.167Z,11.90
2022-12-23T13:09:46.635Z,12.00
2022-12-23T13:12:25.692Z,12.00
2022-12-23T13:15:10.437Z,12.00
2022-12-23T13:17:46.735Z,12.00
2022-12-23T13:20:26.158Z,12.00
2022-12-23T13:23:34.365Z,12.00
2022-12-23T13:26:06.634Z,12.00
2022-12-23T13:28:47.285Z,12.00
2022-12-23T13:31:28.234Z,12.00
2022-12-23T13:34:05.797Z,12.00
2022-12-23T13:36:47.394Z,12.00
2022-12-23T13:39:38.374Z,12.00
2022-12-23T13:42:12.956Z,12.00
2022-12-23T13:44:43.215Z,12.00
2022-12-23T13:47:18.567Z,12.00
2022-12-23T13:50:02.140Z,12.00
2022-12-23T13:52:51.301Z,12.00
2022-12-23T13:55:43.188Z,11.90
2022-12-23T13:58:17.160Z,12.00
2022-12-23T14:00:47.441Z,12.00
2022-12-23T14:03:27.422Z,12.10
2022-12-23T14:05:57.303Z,12.20
2022-12-23T14:08:35.278Z,12.20
2022-12-23T14:11:17.418Z,12.30
2022-12-23T14:13:55.231Z,12.30
2022-12-23T14:16:40.040Z,12.40
2022-12-23T14:19:16.902Z,12.40
2022-12-23T14:21:53.763Z,12.40
2022-12-23T14:24:47.489Z,12.40
2022-12-23T14:27:37.206Z,12.40
2022-12-23T14:30:15.699Z,12.40
2022-12-23T14:32:50.536Z,12.40
2022-12-23T14:35:25.710Z,12.50
2022-12-23T14:38:26.244Z,12.40
2022-12-23T14:41:01.234Z,12.40
2022-12-23T14:43:56.138Z,12.40
2022-12-23T14:46:59.419Z,12.40
2022-12-23T14:49:50.548Z,12.40
2022-12-23T14:52:59.602Z,12.40
2022-12-23T14:55:49.357Z,12.40
2022-12-23T14:58:51.967Z,12.40
2022-12-23T15:01:28.934Z,12.30
2022-12-23T15:04:01.842Z,12.30
2022-12-23T15:06:37.986Z,12.30
2022-12-23T15:09:12.275Z,12.30
2022-12-23T15:11:43.406Z,12.30
2022-12-23T15:14:23.559Z,12.30
2022-12-23T15:16:53.426Z,12.30
2022-12-23T15:19:26.037Z,12.30
2022-12-23T15:22:20.817Z,12.40
2022-12-23T15:24:53.871Z,12.40
2022-12-23T15:27:28.825Z,12.50
2022-12-23T15:30:03.280Z,12.50
2022-12-23T15:32:33.339Z,12.50
2022-12-23T15:35:06.896Z,12.50
2022-12-23T15:37:37.414Z,12.50
2022-12-23T15:40:13.282Z,12.60
2022-12-23T15:42:50.890Z,12.60
2022-12-23T15:45:42.321Z,12.50
2022-12-23T15:48:27.281Z,12.60
2022-12-23T15:51:00.433Z,12.60
2022-12-23T15:53:35.481Z,12.60
2022-12-23T15:56:09.408Z,12.60
2022-12-23T15:58:42.845Z,12.60
2022-12-23T16:01:21.970Z,12.60
2022-12-23T16:03:54.786Z,12.60
2022-12-23T16:06:27.855Z,12.60
2022-12-23T16:09:02.946Z,12.70
2022-12-23T16:11:50.366Z,12.70
2022-12-23T16:14:34.840Z,12.60
2022-12-23T16:17:24.106Z,12.80
2022-12-23T16:19:58.707Z,12.80
2022-12-23T16:22:31.169Z,12.80
2022-12-23T16:25:11.945Z,12.80
2022-12-23T16:27:45.387Z,12.80
2022-12-23T16:30:19.696Z,12.80
2022-12-23T16:32:54.720Z,12.80
2022-12-23T16:35:32.775Z,12.80
2022-12-23T16:38:15.521Z,12.90
2022-12-23T16:40:46.590Z,13.00
2022-12-23T16:43:16.933Z,13.10
2022-12-23T16:45:48.543Z,13.30
2022-12-23T16:48:27.956Z,13.20
2022-12-23T16:51:02.034Z,13.20
2022-12-23T16:53:33.785Z,13.30
2022-12-23T16:56:03.621Z,13.30
2022-12-23T16:58:33.381Z,13.20
2022-12-23T17:01:03.467Z,13.20
2022-12-23T17:03:35.927Z,13.10
2022-12-23T17:06:06.806Z,13.10
2022-12-23T17:08:39.286Z,13.00
2022-12-23T17:11:15.033Z,12.90
2022-12-23T17:13:45.024Z,12.90
2022-12-23T17:16:19.893Z,12.90
2022-12-23T17:18:54.188Z,12.90
2022-12-23T17:21:26.974Z,12.90
2022-12-23T17:24:01.419Z,12.90
2022-12-23T17:26:31.183Z,12.80
2022-12-23T17:29:00.906Z,12.80
2022-12-23T17:31:30.756Z,12.70
2022-12-23T17:34:03.424Z,12.60
2022-12-23T17:36:33.249Z,12.60
2022-12-23T17:39:03.006Z,12.50
2022-12-23T17:41:34.435Z,12.50
2022-12-23T17:44:04.614Z,12.50
2022-12-23T17:46:34.632Z,12.40
2022-12-23T17:49:06.973Z,12.40
2022-12-23T17:51:37.074Z,12.30
2022-12-23T17:54:07.164Z,12.30
2022-12-23T17:56:36.975Z,12.30
2022-12-23T17:59:06.941Z,12.30
2022-12-23T18:01:36.777Z,12.30
2022-12-23T18:04:09.207Z,12.30
2022-12-23T18:06:39.014Z,12.20
2022-12-23T18:09:08.762Z,12.20
2022-12-23T18:11:43.419Z,12.10
2022-12-23T18:14:19.447Z,11.90
2022-12-23T18:16:49.336Z,12.00
2022-12-23T18:19:23.338Z,12.00
2022-12-23T18:21:53.930Z,12.00
2022-12-23T18:24:23.738Z,12.00
2022-12-23T18:26:53.497Z,12.00
2022-12-23T18:29:23.279Z,12.10
2022-12-23T18:31:53.103Z,12.10
2022-12-23T18:34:25.463Z,12.20
2022-12-23T18:36:55.489Z,12.30
2022-12-23T18:39:25.461Z,12.30
2022-12-23T18:41:55.283Z,12.40
2022-12-23T18:44:25.745Z,12.60
2022-12-23T18:46:55.647Z,12.60
2022-12-23T18:49:27.993Z,12.60
2022-12-23T18:51:57.905Z,12.50
2022-12-23T18:54:27.724Z,12.80
2022-12-23T18:56:57.597Z,12.60
2022-12-23T18:59:29.887Z,12.50
2022-12-23T19:02:00.135Z,12.60
2022-12-23T19:04:32.735Z,12.50
2022-12-23T19:07:02.650Z,12.60
2022-12-23T19:09:32.459Z,12.60
2022-12-23T19:12:02.224Z,12.60
2022-12-23T19:14:31.990Z,12.50
2022-12-23T19:17:01.916Z,12.50
2022-12-23T19:19:34.660Z,12.50
2022-12-23T19:22:04.398Z,12.60
2022-12-23T19:24:34.123Z,12.50
2022-12-23T19:27:03.874Z,12.50
2022-12-23T19:29:33.653Z,12.60
2022-12-23T19:32:03.438Z,12.60
2022-12-23T19:34:35.774Z,12.60
2022-12-23T19:37:05.596Z,12.60
2022-12-23T19:39:35.564Z,12.60
2022-12-23T19:42:05.458Z,12.50
2022-12-23T19:44:35.238Z,12.40
2022-12-23T19:47:05.619Z,12.40
2022-12-23T19:49:38.008Z,12.40
2022-12-23T19:52:07.895Z,12.30
2022-12-23T19:54:37.999Z,12.30
2022-12-23T19:57:07.801Z,12.30
2022-12-23T19:59:37.592Z,12.20
2022-12-23T20:02:07.466Z,12.30
2022-12-23T20:04:39.846Z,12.30
2022-12-23T20:07:09.579Z,12.20
2022-12-23T20:09:40.173Z,12.20
2022-12-23T20:12:10.417Z,12.30
2022-12-23T20:14:40.231Z,12.30
2022-12-23T20:17:10.218Z,12.40
2022-12-23T20:19:46.091Z,12.40
2022-12-23T20:22:16.309Z,12.40
2022-12-23T20:24:46.051Z,12.50
2022-12-23T20:27:16.613Z,12.70
2022-12-23T20:29:47.367Z,12.60
2022-12-23T20:32:17.092Z,12.60
2022-12-23T20:34:50.259Z,12.70
2022-12-23T20:37:20.167Z,12.50
2022-12-23T20:39:49.943Z,12.40
2022-12-23T20:42:19.701Z,12.40
2022-12-23T20:44:50.864Z,12.40
2022-12-23T20:47:20.623Z,12.40
2022-12-23T20:49:52.994Z,12.40
2022-12-23T20:52:22.861Z,12.40
2022-12-23T20:54:52.606Z,12.30
2022-12-23T20:57:22.546Z,12.40
2022-12-23T20:59:52.403Z,12.30
2022-12-23T21:02:22.400Z,12.40
2022-12-23T21:04:54.887Z,12.30
2022-12-23T21:07:26.313Z,12.30
2022-12-23T21:09:56.070Z,12.20
2022-12-23T21:12:25.829Z,12.10
2022-12-23T21:14:55.667Z,12.10
2022-12-23T21:17:25.982Z,12.10
2022-12-23T21:20:01.930Z,12.00
2022-12-23T21:22:36.914Z,12.10
2022-12-23T21:25:07.153Z,12.00
2022-12-23T21:27:36.897Z,12.00
2022-12-23T21:30:07.465Z,12.00
2022-12-23T21:32:37.258Z,12.00
2022-12-23T21:35:10.781Z,12.00
2022-12-23T21:37:40.618Z,12.00
2022-12-23T21:40:11.934Z,11.90
2022-12-23T21:42:41.735Z,12.00
2022-12-23T21:45:12.924Z,12.00
2022-12-23T21:47:42.747Z,12.00
2022-12-23T21:50:15.392Z,12.10
2022-12-23T21:52:45.378Z,12.20
2022-12-23T21:55:16.057Z,12.00
2022-12-23T21:57:45.831Z,12.00
2022-12-23T22:00:16.108Z,12.10
2022-12-23T22:02:45.842Z,12.10
2022-12-23T22:05:18.299Z,12.10
2022-12-23T22:07:48.123Z,12.10
2022-12-23T22:10:18.070Z,12.00
2022-12-23T22:12:47.854Z,12.00
2022-12-23T22:15:19.277Z,11.90
2022-12-23T22:17:49.037Z,12.00
2022-12-23T22:20:21.557Z,12.10
2022-12-23T22:22:51.353Z,11.90
2022-12-23T22:25:21.126Z,11.90
2022-12-23T22:27:50.939Z,11.90
2022-12-23T22:30:20.842Z,12.10
2022-12-23T22:32:50.712Z,12.10
2022-12-23T22:35:23.160Z,12.00
2022-12-23T22:37:52.900Z,12.00
2022-12-23T22:40:22.957Z,12.10
2022-12-23T22:42:52.864Z,12.00
2022-12-23T22:45:22.734Z,12.00
2022-12-23T22:47:52.546Z,12.00
2022-12-23T22:50:25.064Z,12.00
2022-12-23T22:52:54.978Z,12.00
2022-12-23T22:55:24.790Z,12.00
2022-12-23T22:57:54.607Z,11.90
2022-12-23T23:00:24.772Z,11.90
2022-12-23T23:02:54.602Z,11.90
2022-12-23T23:05:27.013Z,11.90
2022-12-23T23:07:56.783Z,11.80
2022-12-23T23:10:26.534Z,11.80
2022-12-23T23:12:56.288Z,11.70
2022-12-23T23:15:26.186Z,11.70
2022-12-23T23:17:55.997Z,11.70
2022-12-23T23:20:28.496Z,11.50
2022-12-23T23:22:58.266Z,11.50
2022-12-23T23:25:28.077Z,11.50
2022-12-23T23:27:57.912Z,11.50
2022-12-23T23:30:27.804Z,11.50
2022-12-23T23:32:57.578Z,11.50
2022-12-23T23:35:30.022Z,11.50
2022-12-23T23:37:59.788Z,11.50
2022-12-23T23:40:29.981Z,11.60
2022-12-23T23:42:59.722Z,11.60
2022-12-23T23:45:30.254Z,11.70
2022-12-23T23:48:00.273Z,11.60
2022-12-23T23:50:32.709Z,11.60
2022-12-23T23:53:02.563Z,11.70
2022-12-23T23:55:32.313Z,11.80
2022-12-23T23:58:02.099Z,11.80
